Terminal Aerodrome Forecast
Issued by NWS

Home | Current Version | Previous Version | Text Only | Print | Product List | Glossary On
Versions: 1 2 3 4 5 6 7 8 9 10 11 12 13 14 15 16 17 18 19 20 21 22 23 24 25 26 27 28 29
000
FTUS41 KCTP 171732
TAFUNV
TAF
KUNV 171732Z 1718/1818 00000KT 1SM -RA OVC005
     FM180000 21005KT 5SM -RA BR OVC005
     FM180400 25005KT P6SM OVC009
     FM180600 26009KT 1 1/2SM BR OVC015=

USA.gov is the U.S. government's official web portal to all federal, state and local government web resources and services.